Time;durP1;ratioP1;P1;durP2;ratioP2;P2;SDS_P1;SDS_P2;PMS_P1;PMS_P2;Temp;Humidity;BMP_temperature;BMP_pressure;BME280_temperature;BME280_humidity;BME280_pressure;Samples;Min_cycle;Max_cycle;Signal;HPM_P1;HPM_P2
2023/01/05 00:01:29;;;;;;;9.50;1.73;;;9.30;97.00;;;;;;5025160;28;20029;-69
2023/01/05 00:03:55;;;;;;;13.00;2.10;;;9.30;96.50;;;;;;5028746;28;20033;-68
2023/01/05 00:06:20;;;;;;;9.93;1.90;;;9.40;96.00;;;;;;5029044;28;20025;-68
2023/01/05 00:08:46;;;;;;;7.85;1.50;;;9.30;95.90;;;;;;5028294;28;20038;-68
2023/01/05 00:22:30;;;;;;;15.02;1.90;;;9.30;96.20;;;;;;5026214;28;20552;-69
2023/01/05 00:25:20;;;;;;;13.35;2.63;;;9.20;96.60;;;;;;5028576;28;20029;-69
2023/01/05 00:27:49;;;;;;;12.48;2.28;;;9.30;96.50;;;;;;5027498;28;20048;-68
2023/01/05 00:30:20;;;;;;;11.98;2.05;;;9.30;96.60;;;;;;5030254;28;20091;-68
2023/01/05 00:32:45;;;;;;;15.77;2.42;;;9.20;96.80;;;;;;5025895;28;20037;-68
2023/01/05 00:35:13;;;;;;;15.48;2.38;;;9.20;96.60;;;;;;5028055;28;20460;-68
2023/01/05 00:37:39;;;;;;;14.52;2.80;;;9.30;96.40;;;;;;5029404;28;20095;-69
2023/01/05 00:40:06;;;;;;;11.00;1.95;;;9.20;96.60;;;;;;5026344;28;20029;-68
2023/01/05 00:42:31;;;;;;;11.25;2.30;;;9.20;96.60;;;;;;5025598;28;20045;-68
2023/01/05 00:44:57;;;;;;;13.95;2.20;;;9.20;96.70;;;;;;5031557;28;20029;-68
2023/01/05 00:47:22;;;;;;;10.63;1.85;;;9.20;96.80;;;;;;5027416;28;20034;-68
2023/01/05 00:49:48;;;;;;;13.60;2.17;;;9.20;96.80;;;;;;5030678;28;20033;-68
2023/01/05 00:52:13;;;;;;;13.73;2.20;;;9.10;97.20;;;;;;5026779;28;20094;-69
2023/01/05 00:54:39;;;;;;;13.13;2.50;;;9.00;97.80;;;;;;5029350;28;20448;-68
2023/01/05 00:57:06;;;;;;;11.75;2.25;;;9.00;98.20;;;;;;5023535;28;20038;-69
2023/01/05 00:59:31;;;;;;;16.65;2.47;;;8.90;98.50;;;;;;5018690;28;20060;-68
2023/01/05 01:01:57;;;;;;;7.30;1.75;;;8.90;98.80;;;;;;5026233;28;20119;-68
2023/01/05 01:04:23;;;;;;;15.15;2.20;;;8.80;99.10;;;;;;5025355;28;20076;-68
2023/01/05 01:06:48;;;;;;;15.73;2.35;;;8.80;99.20;;;;;;5028975;28;20033;-68
2023/01/05 01:09:14;;;;;;;11.32;2.45;;;8.80;99.10;;;;;;5027785;28;20350;-68
2023/01/05 01:11:40;;;;;;;10.35;1.98;;;8.90;98.30;;;;;;5024682;28;20060;-69
2023/01/05 01:14:07;;;;;;;15.98;2.30;;;8.90;98.30;;;;;;5027273;28;20553;-69
2023/01/05 01:16:33;;;;;;;13.13;2.72;;;8.90;98.30;;;;;;5029189;28;20049;-69
2023/01/05 01:18:59;;;;;;;14.20;2.33;;;8.90;98.20;;;;;;5025418;28;20065;-68
2023/01/05 01:21:25;;;;;;;9.80;1.77;;;8.90;98.10;;;;;;5027190;28;20092;-68
2023/01/05 01:23:51;;;;;;;12.27;1.83;;;8.90;98.20;;;;;;5027655;28;20048;-68
2023/01/05 01:26:16;;;;;;;11.07;2.40;;;8.90;98.10;;;;;;5025894;28;20029;-68
2023/01/05 01:28:42;;;;;;;13.15;2.17;;;8.90;98.10;;;;;;5026444;28;20068;-68
2023/01/05 01:31:07;;;;;;;13.88;2.67;;;8.90;98.20;;;;;;5028289;28;20057;-69
2023/01/05 01:33:38;;;;;;;11.65;2.17;;;8.90;98.00;;;;;;5028434;28;20432;-69
2023/01/05 01:36:04;;;;;;;9.57;1.80;;;8.90;97.60;;;;;;5029400;28;20091;-68
2023/01/05 01:38:30;;;;;;;9.52;2.15;;;9.00;97.40;;;;;;5027499;28;20087;-68
2023/01/05 01:40:56;;;;;;;12.73;2.20;;;9.00;97.00;;;;;;5025431;28;20041;-69
2023/01/05 01:43:47;;;;;;;17.10;2.47;;;9.00;97.20;;;;;;5029965;28;20025;-69
2023/01/05 01:46:14;;;;;;;10.45;1.75;;;8.90;97.60;;;;;;5028513;28;20728;-68
2023/01/05 01:48:48;;;;;;;12.68;2.05;;;8.90;97.70;;;;;;5029522;28;20033;-69
2023/01/05 01:51:43;;;;;;;7.85;1.70;;;8.90;97.90;;;;;;5028379;28;20029;-69
2023/01/05 01:54:13;;;;;;;10.32;1.60;;;8.90;97.80;;;;;;5028456;28;20037;-68
2023/01/05 01:56:42;;;;;;;11.98;2.53;;;8.90;97.90;;;;;;5025171;28;20060;-68
2023/01/05 01:59:09;;;;;;;6.72;2.35;;;8.90;97.60;;;;;;5023581;28;20040;-68
2023/01/05 02:01:34;;;;;;;12.30;2.05;;;8.90;97.50;;;;;;5028789;28;20040;-68
2023/01/05 02:04:02;;;;;;;9.57;1.65;;;8.90;97.80;;;;;;5028059;28;20541;-68
2023/01/05 02:06:27;;;;;;;16.80;2.30;;;8.90;98.00;;;;;;5025274;28;20057;-68
2023/01/05 02:08:53;;;;;;;12.75;2.45;;;8.90;97.70;;;;;;5029719;28;20069;-68
2023/01/05 02:11:30;;;;;;;11.05;2.80;;;8.90;97.70;;;;;;5025680;28;20145;-68
2023/01/05 02:14:26;;;;;;;15.30;2.33;;;8.90;97.60;;;;;;5029712;28;20106;-68
2023/01/05 02:16:58;;;;;;;10.73;2.35;;;8.90;97.90;;;;;;5029373;28;20041;-68
2023/01/05 02:19:45;;;;;;;10.20;1.75;;;8.80;97.90;;;;;;5026819;28;20040;-69
2023/01/05 02:22:38;;;;;;;10.40;1.90;;;8.80;97.70;;;;;;5028635;28;20077;-68
2023/01/05 02:25:16;;;;;;;14.13;1.83;;;8.90;97.80;;;;;;5028254;28;20094;-68
2023/01/05 02:28:04;;;;;;;7.22;1.77;;;8.80;97.90;;;;;;5029828;28;20037;-68
2023/01/05 02:30:52;;;;;;;4.72;1.50;;;8.80;98.00;;;;;;5031391;28;20025;-68
2023/01/05 02:33:34;;;;;;;7.32;2.00;;;8.80;98.20;;;;;;5025550;28;20091;-69
2023/01/05 02:36:28;;;;;;;6.95;1.42;;;8.80;98.00;;;;;;5032261;28;20045;-68
2023/01/05 02:39:15;;;;;;;9.60;1.92;;;8.80;98.10;;;;;;5032151;28;20087;-69
2023/01/05 02:41:52;;;;;;;12.32;2.10;;;8.80;98.40;;;;;;5024642;28;20092;-68
2023/01/05 02:44:19;;;;;;;7.93;1.40;;;8.70;98.60;;;;;;5030128;28;20033;-68
2023/01/05 02:46:45;;;;;;;7.40;1.55;;;8.70;98.60;;;;;;5031796;28;20033;-68
2023/01/05 02:49:15;;;;;;;13.05;1.80;;;8.70;98.70;;;;;;5031120;28;20066;-68
2023/01/05 02:51:47;;;;;;;10.05;1.63;;;8.60;98.80;;;;;;5031935;28;20139;-69
2023/01/05 02:54:19;;;;;;;8.93;1.73;;;8.60;98.80;;;;;;5029512;28;20040;-68
2023/01/05 02:56:58;;;;;;;4.30;0.85;;;8.60;99.10;;;;;;5031750;28;20114;-68
2023/01/05 02:59:34;;;;;;;4.65;0.73;;;8.60;99.00;;;;;;5024492;28;20482;-68
2023/01/05 03:02:14;;;;;;;4.93;0.90;;;8.60;99.60;;;;;;5029295;28;20048;-68
2023/01/05 03:04:58;;;;;;;4.40;0.93;;;8.40;99.80;;;;;;5030114;28;20130;-68
2023/01/05 03:07:27;;;;;;;2.90;0.60;;;8.50;99.90;;;;;;5031628;28;20022;-69
2023/01/05 03:09:53;;;;;;;3.05;0.60;;;8.40;99.90;;;;;;5030137;28;20041;-68
2023/01/05 03:15:26;;;;;;;1.45;0.50;;;8.10;99.30;;;;;;5032794;28;20107;-68
2023/01/05 03:17:56;;;;;;;0.85;0.30;;;8.00;99.20;;;;;;5034095;28;20029;-68
2023/01/05 03:20:26;;;;;;;2.05;0.40;;;8.00;99.10;;;;;;5030256;28;20042;-69
2023/01/05 03:37:06;;;;;;;1.95;0.70;;;7.90;98.20;;;;;;5022350;28;20576;-69
2023/01/05 03:39:34;;;;;;;5.20;0.65;;;7.90;98.40;;;;;;5029699;28;20041;-68
2023/01/05 03:42:00;;;;;;;2.72;0.50;;;8.00;98.00;;;;;;5033334;28;20116;-69
2023/01/05 03:44:26;;;;;;;1.60;0.50;;;7.90;98.10;;;;;;5027882;28;20045;-68
2023/01/05 03:46:51;;;;;;;4.20;0.57;;;7.90;98.20;;;;;;5026904;28;20040;-69
2023/01/05 03:49:17;;;;;;;1.75;0.70;;;7.90;98.10;;;;;;5030981;28;20030;-68
2023/01/05 03:51:43;;;;;;;1.65;0.50;;;8.00;98.10;;;;;;5028929;28;20029;-69
2023/01/05 03:54:08;;;;;;;5.90;0.80;;;8.00;98.00;;;;;;5030866;28;20034;-68
2023/01/05 03:56:34;;;;;;;3.20;0.75;;;8.00;97.60;;;;;;5031758;28;20045;-68
2023/01/05 03:58:59;;;;;;;3.55;0.60;;;8.10;97.60;;;;;;5020993;28;20086;-68
2023/01/05 04:01:25;;;;;;;3.65;0.60;;;8.10;97.40;;;;;;5024212;28;20029;-68
2023/01/05 04:03:50;;;;;;;5.18;0.80;;;8.00;97.40;;;;;;5028263;28;20033;-68
2023/01/05 04:06:16;;;;;;;3.13;0.75;;;8.00;97.80;;;;;;5027947;28;20108;-68
2023/01/05 04:08:42;;;;;;;1.60;0.45;;;8.00;97.50;;;;;;5029910;28;20481;-69
2023/01/05 04:11:12;;;;;;;0.73;0.28;;;8.10;97.00;;;;;;5031126;28;20059;-68
2023/01/05 04:13:38;;;;;;;1.27;0.43;;;8.00;97.10;;;;;;5028145;28;20362;-68
2023/01/05 04:16:04;;;;;;;3.70;0.70;;;8.00;97.40;;;;;;5031202;28;20045;-68
2023/01/05 04:18:29;;;;;;;4.18;0.85;;;8.10;97.00;;;;;;5031557;28;20116;-68
2023/01/05 04:20:55;;;;;;;2.80;0.50;;;8.00;97.20;;;;;;5024010;28;20034;-69
2023/01/05 04:23:20;;;;;;;3.20;0.47;;;8.10;96.90;;;;;;5026875;28;20530;-69
2023/01/05 04:25:46;;;;;;;2.75;0.47;;;8.10;97.10;;;;;;5030392;28;20037;-69
2023/01/05 04:28:12;;;;;;;1.95;0.60;;;8.10;97.40;;;;;;5023358;28;20057;-69
2023/01/05 04:30:38;;;;;;;8.38;0.80;;;8.00;97.80;;;;;;5026877;28;20076;-68
2023/01/05 04:33:03;;;;;;;1.25;0.57;;;8.00;97.70;;;;;;5025639;28;20034;-69
2023/01/05 04:35:28;;;;;;;4.13;0.60;;;8.00;97.80;;;;;;5029418;28;20039;-68
2023/01/05 04:37:54;;;;;;;1.02;0.40;;;8.10;97.50;;;;;;5024601;28;20080;-68
2023/01/05 04:40:19;;;;;;;3.92;0.82;;;8.10;97.50;;;;;;5031294;28;20159;-68
2023/01/05 04:42:46;;;;;;;2.95;0.50;;;8.10;97.40;;;;;;5031610;28;20506;-68
2023/01/05 04:45:11;;;;;;;4.68;0.60;;;8.00;97.60;;;;;;5027475;28;20163;-69
2023/01/05 04:47:37;;;;;;;1.63;0.50;;;8.00;97.60;;;;;;5027954;28;20108;-68
2023/01/05 04:50:02;;;;;;;4.43;0.93;;;8.00;97.50;;;;;;5028757;28;20044;-69
2023/01/05 04:52:28;;;;;;;2.22;0.60;;;8.10;97.00;;;;;;5023770;28;20029;-68
2023/01/05 04:54:53;;;;;;;1.45;0.40;;;8.00;97.40;;;;;;5029623;28;20037;-68
2023/01/05 04:57:19;;;;;;;3.83;0.77;;;8.00;97.20;;;;;;5028617;28;20159;-68
2023/01/05 04:59:44;;;;;;;1.80;0.68;;;8.00;97.00;;;;;;5029863;28;20034;-68
2023/01/05 05:02:11;;;;;;;4.38;0.70;;;8.00;97.30;;;;;;5026022;28;20379;-69
2023/01/05 05:04:36;;;;;;;2.03;0.35;;;8.00;97.30;;;;;;5026240;28;20037;-68
2023/01/05 05:07:01;;;;;;;4.47;0.60;;;8.00;97.10;;;;;;5026011;28;20047;-68
2023/01/05 05:09:27;;;;;;;2.47;1.00;;;8.00;97.00;;;;;;5028897;28;20032;-69
2023/01/05 05:11:52;;;;;;;3.95;0.82;;;8.00;97.20;;;;;;5027401;28;20037;-68
2023/01/05 05:14:18;;;;;;;3.40;0.70;;;8.00;97.20;;;;;;5031800;28;20037;-68
2023/01/05 05:16:43;;;;;;;4.82;0.65;;;8.10;96.90;;;;;;5029697;28;20030;-68
2023/01/05 05:19:09;;;;;;;2.03;0.57;;;8.10;96.50;;;;;;5028386;28;20025;-69
2023/01/05 05:21:35;;;;;;;2.25;0.80;;;8.10;96.60;;;;;;5026202;28;20482;-68
2023/01/05 05:24:00;;;;;;;2.47;0.55;;;8.20;96.30;;;;;;5028230;28;20096;-68
2023/01/05 05:26:26;;;;;;;2.47;0.70;;;8.20;96.60;;;;;;5027152;28;20374;-68
2023/01/05 05:28:51;;;;;;;1.42;0.70;;;8.20;96.90;;;;;;5023789;28;20029;-70
2023/01/05 05:31:17;;;;;;;4.65;1.20;;;8.10;97.20;;;;;;5022771;28;20382;-70
2023/01/05 05:33:42;;;;;;;5.55;1.10;;;8.20;97.20;;;;;;5021241;28;20040;-71
2023/01/05 05:36:08;;;;;;;5.63;1.13;;;8.10;97.40;;;;;;5017337;28;20052;-71
2023/01/05 05:38:34;;;;;;;6.30;1.17;;;8.10;97.70;;;;;;5026648;28;20037;-71
2023/01/05 05:40:59;;;;;;;6.60;0.70;;;8.10;97.80;;;;;;5030342;28;20044;-71
2023/01/05 05:43:25;;;;;;;4.20;1.00;;;8.00;97.90;;;;;;5030010;28;20493;-71
2023/01/05 05:45:50;;;;;;;6.20;1.33;;;8.00;97.70;;;;;;5027038;28;20038;-71
2023/01/05 05:48:16;;;;;;;8.95;0.98;;;8.00;97.40;;;;;;5028055;28;20041;-71
2023/01/05 05:50:43;;;;;;;8.13;1.33;;;8.00;97.20;;;;;;5025870;28;20106;-71
2023/01/05 05:53:08;;;;;;;6.60;1.17;;;8.10;96.10;;;;;;5026616;28;20407;-71
2023/01/05 05:55:34;;;;;;;6.88;1.63;;;8.00;96.30;;;;;;5030081;28;20129;-71
2023/01/05 05:57:59;;;;;;;6.07;1.20;;;8.10;95.70;;;;;;5027558;28;20031;-71
2023/01/05 06:00:25;;;;;;;5.78;1.42;;;8.00;95.90;;;;;;5019406;28;20108;-71
2023/01/05 06:02:50;;;;;;;8.80;1.63;;;8.00;96.00;;;;;;5024430;28;20033;-71
2023/01/05 06:05:16;;;;;;;5.55;1.10;;;8.10;95.30;;;;;;5023986;28;20037;-71
2023/01/05 06:07:41;;;;;;;4.18;1.33;;;8.10;95.20;;;;;;5028925;28;20087;-71
2023/01/05 06:10:07;;;;;;;5.30;1.08;;;8.00;95.30;;;;;;5029079;28;20079;-71
2023/01/05 06:12:33;;;;;;;7.82;1.73;;;8.00;95.50;;;;;;5029573;28;20094;-71
2023/01/05 06:14:58;;;;;;;9.55;1.88;;;8.00;95.40;;;;;;5027341;28;20038;-71
2023/01/05 06:17:24;;;;;;;5.07;1.05;;;7.90;95.60;;;;;;5029770;28;20041;-71
2023/01/05 06:19:49;;;;;;;8.30;1.55;;;8.00;95.30;;;;;;5026746;28;20026;-71
2023/01/05 06:22:14;;;;;;;11.40;1.63;;;8.00;95.10;;;;;;5028762;28;20053;-71
2023/01/05 06:24:40;;;;;;;8.70;1.70;;;8.00;95.20;;;;;;5026963;28;20034;-71
2023/01/05 06:27:05;;;;;;;7.45;1.50;;;8.00;94.70;;;;;;5022710;28;20026;-71
2023/01/05 06:29:31;;;;;;;7.93;1.52;;;8.00;95.00;;;;;;5027380;28;20056;-71
2023/01/05 06:31:56;;;;;;;4.85;1.17;;;8.00;94.60;;;;;;5027695;28;20044;-71
2023/01/05 06:34:22;;;;;;;8.75;1.40;;;8.00;94.10;;;;;;5021680;28;20552;-71
2023/01/05 06:36:47;;;;;;;5.57;1.13;;;8.00;93.80;;;;;;5022699;28;20041;-71
2023/01/05 06:39:13;;;;;;;6.97;1.30;;;7.90;94.30;;;;;;5017963;28;20053;-71
2023/01/05 06:41:38;;;;;;;8.30;1.92;;;7.90;94.60;;;;;;5023592;28;20029;-71
2023/01/05 06:44:04;;;;;;;12.35;1.92;;;7.90;94.60;;;;;;5024903;28;20168;-70
2023/01/05 06:46:30;;;;;;;9.45;1.30;;;7.80;94.70;;;;;;5029917;28;20056;-71
2023/01/05 06:48:56;;;;;;;4.20;0.80;;;7.90;94.20;;;;;;5027229;28;20025;-70
2023/01/05 06:51:21;;;;;;;8.40;1.85;;;7.90;94.40;;;;;;5028688;28;20036;-70
2023/01/05 06:53:46;;;;;;;8.05;1.30;;;7.80;94.60;;;;;;5026567;28;20450;-70
2023/01/05 06:56:12;;;;;;;8.98;1.35;;;7.80;94.50;;;;;;5028881;28;20107;-70
2023/01/05 06:58:37;;;;;;;8.45;1.20;;;7.80;95.10;;;;;;5022932;28;20374;-71
2023/01/05 07:01:03;;;;;;;6.93;2.03;;;7.70;95.20;;;;;;5022736;28;20033;-71
2023/01/05 07:03:29;;;;;;;4.68;1.52;;;7.80;94.90;;;;;;5024859;28;20091;-71
2023/01/05 07:05:54;;;;;;;5.75;1.45;;;7.80;94.10;;;;;;5024418;28;20046;-71
2023/01/05 07:08:20;;;;;;;8.90;1.65;;;7.70;93.80;;;;;;5029618;28;20048;-71
2023/01/05 07:10:45;;;;;;;8.32;1.58;;;7.80;93.90;;;;;;5029586;28;20078;-71
2023/01/05 07:13:11;;;;;;;9.05;1.40;;;7.80;93.30;;;;;;5028211;28;20034;-72
2023/01/05 07:15:36;;;;;;;5.10;1.10;;;7.80;93.80;;;;;;5030953;28;20108;-71
2023/01/05 07:18:04;;;;;;;7.80;1.30;;;7.80;93.30;;;;;;5025330;28;20044;-71
2023/01/05 07:20:30;;;;;;;11.20;1.90;;;7.80;93.30;;;;;;5020012;28;20041;-72
2023/01/05 07:22:55;;;;;;;8.65;1.45;;;7.80;93.00;;;;;;5032124;28;20390;-71
2023/01/05 07:25:21;;;;;;;13.23;2.00;;;7.80;93.10;;;;;;5029943;28;20037;-71
2023/01/05 07:27:51;;;;;;;8.98;1.52;;;7.80;92.70;;;;;;5031431;28;20026;-71
2023/01/05 07:30:17;;;;;;;12.00;1.35;;;7.80;92.70;;;;;;5030820;28;20033;-71
2023/01/05 07:32:42;;;;;;;8.52;1.63;;;7.70;93.10;;;;;;5031197;28;20029;-71
2023/01/05 07:35:08;;;;;;;4.65;1.10;;;7.60;93.30;;;;;;5029577;28;20041;-71
2023/01/05 07:37:33;;;;;;;8.15;1.23;;;7.60;93.30;;;;;;5025083;28;20026;-71
2023/01/05 07:39:59;;;;;;;9.02;1.10;;;7.60;93.40;;;;;;5025002;28;20107;-71
2023/01/05 07:42:25;;;;;;;7.55;1.45;;;7.60;93.50;;;;;;5031077;28;20113;-71
2023/01/05 07:44:51;;;;;;;6.38;1.20;;;7.70;92.70;;;;;;5028026;28;20481;-71
2023/01/05 07:47:17;;;;;;;8.90;1.50;;;7.60;93.00;;;;;;5025121;28;20030;-71
2023/01/05 07:49:42;;;;;;;11.05;1.73;;;7.60;93.20;;;;;;5029953;28;20079;-71
2023/01/05 07:52:08;;;;;;;5.22;1.00;;;7.60;93.10;;;;;;5027379;28;20470;-72
2023/01/05 07:54:33;;;;;;;6.07;1.15;;;7.50;93.50;;;;;;5030897;28;20033;-71
2023/01/05 07:56:59;;;;;;;14.32;2.47;;;7.50;93.80;;;;;;5032533;28;20092;-71
2023/01/05 07:59:24;;;;;;;7.07;1.13;;;7.40;93.60;;;;;;5029899;28;20029;-71
2023/01/05 08:01:50;;;;;;;9.77;1.42;;;7.50;93.60;;;;;;5027100;28;20261;-71
2023/01/05 08:04:15;;;;;;;11.73;1.55;;;7.50;93.60;;;;;;5025441;28;20026;-71
2023/01/05 08:06:41;;;;;;;6.00;1.70;;;7.50;93.40;;;;;;5030320;28;20045;-71
2023/01/05 08:11:50;;;;;;;6.18;1.45;;;7.60;93.00;;;;;;5024138;28;20092;-71
2023/01/05 08:14:16;;;;;;;12.70;1.50;;;7.60;93.20;;;;;;5028581;28;20030;-71
2023/01/05 08:16:41;;;;;;;8.48;1.38;;;7.60;93.20;;;;;;5023801;28;20482;-71
2023/01/05 08:19:08;;;;;;;8.38;1.58;;;7.60;92.50;;;;;;5027654;28;20026;-71
2023/01/05 08:21:34;;;;;;;6.10;0.95;;;7.60;92.40;;;;;;5029416;28;20045;-71
2023/01/05 08:23:59;;;;;;;8.57;1.50;;;7.70;91.30;;;;;;5026422;28;20111;-71
2023/01/05 08:26:26;;;;;;;8.27;1.50;;;7.60;91.80;;;;;;5029692;28;20084;-71
2023/01/05 08:28:52;;;;;;;11.70;1.55;;;7.70;91.50;;;;;;5025098;28;20029;-71
2023/01/05 08:31:20;;;;;;;5.25;1.08;;;7.60;91.90;;;;;;5024782;28;20041;-71
2023/01/05 08:33:46;;;;;;;10.48;1.58;;;7.60;92.10;;;;;;5024977;28;20021;-71
2023/01/05 08:36:15;;;;;;;11.77;1.80;;;7.60;92.60;;;;;;5030321;28;20377;-71
2023/01/05 08:38:47;;;;;;;13.70;1.63;;;7.60;92.20;;;;;;5022591;28;20181;-71
2023/01/05 08:41:21;;;;;;;6.78;1.70;;;7.60;92.30;;;;;;5031163;28;20048;-71
2023/01/05 08:43:58;;;;;;;11.57;1.48;;;7.60;92.70;;;;;;5028565;28;20041;-71
2023/01/05 08:46:26;;;;;;;12.88;1.65;;;7.60;92.80;;;;;;5025458;28;20034;-71
2023/01/05 08:48:54;;;;;;;8.68;1.65;;;7.60;92.80;;;;;;5023122;28;20060;-71
2023/01/05 08:51:20;;;;;;;9.85;1.45;;;7.60;92.50;;;;;;5029617;28;20052;-71
2023/01/05 08:53:46;;;;;;;7.88;1.42;;;7.60;92.80;;;;;;5027885;28;20382;-71
2023/01/05 08:56:12;;;;;;;8.18;1.67;;;7.70;92.10;;;;;;5031452;28;20086;-71
2023/01/05 08:58:39;;;;;;;14.88;2.05;;;7.70;91.90;;;;;;5028024;28;20030;-71
2023/01/05 09:01:09;;;;;;;10.32;1.45;;;7.80;92.20;;;;;;5030321;28;20026;-71
2023/01/05 09:03:35;;;;;;;13.47;1.70;;;7.80;92.60;;;;;;5028312;28;20033;-71
2023/01/05 09:06:02;;;;;;;13.85;2.08;;;7.70;92.40;;;;;;5027100;28;20386;-71
2023/01/05 09:08:32;;;;;;;13.52;2.05;;;7.80;92.40;;;;;;5026936;28;20071;-71
2023/01/05 09:11:09;;;;;;;10.10;2.22;;;7.80;92.40;;;;;;5033801;28;20036;-71
2023/01/05 09:13:36;;;;;;;11.57;1.77;;;7.80;92.50;;;;;;5027951;28;20033;-71
2023/01/05 09:16:07;;;;;;;10.55;1.20;;;7.80;92.60;;;;;;5027682;28;20120;-71
2023/01/05 09:18:33;;;;;;;;;;;7.80;92.50;;;;;;5027790;28;20056;-71
2023/01/05 09:20:59;;;;;;;19.05;1.95;;;7.90;92.60;;;;;;5029919;28;20361;-71
2023/01/05 09:23:24;;;;;;;20.00;1.75;;;7.90;92.40;;;;;;5029779;28;20038;-71
2023/01/05 09:25:49;;;;;;;9.73;1.60;;;7.90;92.20;;;;;;5024782;28;20470;-71
2023/01/05 09:28:15;;;;;;;13.32;2.10;;;7.80;92.30;;;;;;5024498;28;20038;-71
2023/01/05 09:30:40;;;;;;;9.15;1.65;;;7.80;92.70;;;;;;5030710;28;20049;-71
2023/01/05 09:33:06;;;;;;;13.00;1.40;;;7.70;92.90;;;;;;5026481;28;20494;-71
2023/01/05 09:35:31;;;;;;;18.02;2.17;;;7.70;92.50;;;;;;5024618;28;20049;-71
2023/01/05 09:37:57;;;;;;;10.32;1.58;;;7.80;92.30;;;;;;5016773;28;20041;-71
2023/01/05 09:40:23;;;;;;;15.85;2.28;;;7.80;92.50;;;;;;5022839;28;20026;-72
2023/01/05 09:42:49;;;;;;;17.48;2.10;;;7.80;92.70;;;;;;5024303;28;20029;-70
2023/01/05 09:45:22;;;;;;;8.48;1.67;;;7.80;92.70;;;;;;5025089;28;20486;-71
2023/01/05 09:47:49;;;;;;;8.88;1.50;;;7.80;92.50;;;;;;5029216;28;20033;-70
2023/01/05 09:50:21;;;;;;;18.15;2.00;;;7.80;92.30;;;;;;5020918;28;20029;-70
2023/01/05 09:52:48;;;;;;;13.75;1.98;;;7.80;92.60;;;;;;5022742;28;20117;-70
2023/01/05 09:55:16;;;;;;;13.35;1.50;;;7.90;92.10;;;;;;5026656;28;20022;-70
2023/01/05 09:57:47;;;;;;;11.48;1.85;;;8.00;91.90;;;;;;5028669;28;20033;-70
2023/01/05 10:00:14;;;;;;;;;;;8.10;91.40;;;;;;5018288;28;20034;-71
2023/01/05 10:02:47;;;;;;;11.20;1.45;;;8.10;91.90;;;;;;5030289;28;19916;-71
2023/01/05 10:05:14;;;;;;;13.02;2.38;;;8.10;90.80;;;;;;5020052;28;20034;-70
2023/01/05 10:07:44;;;;;;;10.85;2.13;;;8.20;90.10;;;;;;5026498;28;20178;-71
2023/01/05 10:10:42;;;;;;;11.65;1.60;;;8.30;90.50;;;;;;5020509;28;20540;-70
2023/01/05 10:13:23;;;;;;;6.03;1.77;;;8.50;90.70;;;;;;5023420;28;20064;-71
2023/01/05 10:15:52;;;;;;;18.83;2.42;;;8.40;90.60;;;;;;5028004;28;20041;-70
2023/01/05 10:18:23;;;;;;;9.10;1.50;;;8.30;90.90;;;;;;5025726;28;20027;-70
2023/01/05 10:21:03;;;;;;;12.10;1.98;;;8.30;91.30;;;;;;5018504;28;20029;-70
2023/01/05 10:23:48;;;;;;;10.80;1.92;;;8.20;91.80;;;;;;5023082;28;20041;-71
2023/01/05 10:26:29;;;;;;;11.93;2.13;;;8.30;91.80;;;;;;5024419;28;20072;-70
2023/01/05 10:29:07;;;;;;;16.23;2.22;;;8.30;91.30;;;;;;5022833;28;20029;-70
2023/01/05 10:31:45;;;;;;;10.68;1.83;;;8.30;91.20;;;;;;5027170;28;20037;-71
2023/01/05 10:34:21;;;;;;;7.45;2.25;;;8.30;91.20;;;;;;5024515;28;20394;-70
2023/01/05 10:37:22;;;;;;;9.82;1.52;;;8.30;91.20;;;;;;5023073;28;20455;-71
2023/01/05 10:40:12;;;;;;;7.82;1.85;;;8.20;91.40;;;;;;5026364;28;20037;-71
2023/01/05 10:42:54;;;;;;;14.48;1.67;;;8.20;92.10;;;;;;5020315;28;20030;-70
2023/01/05 10:45:20;;;;;;;10.40;1.65;;;8.20;92.20;;;;;;5018921;28;20057;-69
2023/01/05 10:47:48;;;;;;;7.47;1.42;;;8.20;92.40;;;;;;5021882;28;20072;-69
2023/01/05 10:50:35;;;;;;;12.98;2.33;;;8.20;92.40;;;;;;5030426;28;20730;-68
2023/01/05 10:53:11;;;;;;;13.15;2.38;;;8.20;92.20;;;;;;5025629;28;20043;-68
2023/01/05 10:55:47;;;;;;;13.85;2.08;;;8.20;92.20;;;;;;5030916;28;20038;-68
2023/01/05 10:58:27;;;;;;;9.57;1.65;;;8.20;91.70;;;;;;5030404;28;20057;-69
2023/01/05 11:00:56;;;;;;;11.15;2.03;;;8.20;91.80;;;;;;5027424;28;20474;-70
2023/01/05 11:03:28;;;;;;;18.02;1.77;;;8.20;92.20;;;;;;5026836;28;20038;-69
2023/01/05 11:05:53;;;;;;;11.32;2.10;;;8.30;92.30;;;;;;5024278;28;20052;-69
2023/01/05 11:08:27;;;;;;;14.65;2.28;;;8.30;92.00;;;;;;5027622;28;20038;-70
2023/01/05 11:11:03;;;;;;;11.90;2.05;;;8.30;91.50;;;;;;5023001;28;20041;-70
2023/01/05 11:13:33;;;;;;;14.90;2.10;;;8.30;91.40;;;;;;5021333;28;20049;-69
2023/01/05 11:16:08;;;;;;;13.18;2.35;;;8.30;91.70;;;;;;5027738;28;20037;-69
2023/01/05 11:19:00;;;;;;;12.75;2.10;;;8.30;91.70;;;;;;5032249;28;20030;-69
2023/01/05 11:21:30;;;;;;;11.20;1.23;;;8.30;91.70;;;;;;5022485;28;20444;-70
2023/01/05 11:23:58;;;;;;;12.32;1.88;;;8.30;91.80;;;;;;5030024;28;20033;-70
2023/01/05 11:26:28;;;;;;;10.13;2.10;;;8.30;91.90;;;;;;5029932;28;20037;-70
2023/01/05 11:29:00;;;;;;;10.25;1.75;;;8.20;92.20;;;;;;5028906;28;20033;-70
2023/01/05 11:31:52;;;;;;;11.73;1.95;;;8.20;92.10;;;;;;5024501;28;20030;-69
2023/01/05 11:34:42;;;;;;;9.80;1.75;;;8.20;92.20;;;;;;5025477;28;20036;-69
2023/01/05 11:37:10;;;;;;;11.23;1.77;;;8.20;91.30;;;;;;5026046;28;20025;-69
2023/01/05 11:39:45;;;;;;;18.58;2.67;;;8.20;91.60;;;;;;5030535;28;20049;-69
2023/01/05 11:42:31;;;;;;;10.82;1.92;;;8.20;92.20;;;;;;5032993;28;20033;-70
2023/01/05 11:45:03;;;;;;;11.68;1.90;;;8.20;91.80;;;;;;5029079;28;20033;-69
2023/01/05 11:47:34;;;;;;;16.70;2.17;;;8.30;91.90;;;;;;5031745;28;20481;-70
2023/01/05 11:50:11;;;;;;;10.15;1.77;;;8.30;91.30;;;;;;5019616;28;20386;-70
2023/01/05 11:52:49;;;;;;;10.05;1.88;;;8.40;91.10;;;;;;5026333;28;20087;-70
2023/01/05 11:55:31;;;;;;;12.15;1.58;;;8.40;90.40;;;;;;5030287;28;20026;-70
2023/01/05 11:58:22;;;;;;;10.23;1.55;;;8.50;91.30;;;;;;5025122;28;20085;-69
2023/01/05 12:01:13;;;;;;;18.02;2.22;;;8.70;90.80;;;;;;5026322;28;20480;-70
2023/01/05 12:03:52;;;;;;;14.15;1.50;;;8.70;90.00;;;;;;5020396;28;20083;-70
2023/01/05 12:06:51;;;;;;;11.18;1.48;;;8.70;89.30;;;;;;5024043;28;20025;-72
2023/01/05 12:09:41;;;;;;;9.40;1.95;;;8.80;89.20;;;;;;5026869;28;20397;-72
2023/01/05 12:12:25;;;;;;;10.55;1.73;;;8.80;89.30;;;;;;5025205;28;20033;-72
2023/01/05 12:15:11;;;;;;;6.20;1.33;;;8.90;89.20;;;;;;5027020;28;20030;-70
2023/01/05 12:18:07;;;;;;;10.30;1.83;;;8.80;88.10;;;;;;5023066;28;20073;-71
2023/01/05 12:20:55;;;;;;;10.10;1.60;;;8.70;89.10;;;;;;5027571;28;20037;-69
2023/01/05 12:23:45;;;;;;;12.50;1.80;;;8.60;88.30;;;;;;5022058;28;20042;-70
2023/01/05 12:26:27;;;;;;;12.65;1.88;;;8.60;88.50;;;;;;5025886;28;20041;-69
2023/01/05 12:29:33;;;;;;;10.75;1.73;;;8.60;88.70;;;;;;5017329;28;20045;-69
2023/01/05 12:32:17;;;;;;;6.53;1.00;;;8.60;89.10;;;;;;5014102;28;20092;-69
2023/01/05 12:34:57;;;;;;;10.60;1.65;;;8.60;87.90;;;;;;5026402;28;20030;-69
2023/01/05 12:37:48;;;;;;;11.73;2.50;;;8.80;87.70;;;;;;5029211;28;20469;-75
2023/01/05 12:40:47;;;;;;;9.73;1.70;;;9.00;87.70;;;;;;5021941;28;20057;-70
2023/01/05 12:43:53;;;;;;;15.30;2.03;;;8.90;87.40;;;;;;5030897;28;20041;-71
2023/01/05 12:46:52;;;;;;;8.20;1.63;;;8.90;88.00;;;;;;5016998;28;20120;-72
2023/01/05 12:49:24;;;;;;;9.52;1.65;;;8.80;88.00;;;;;;5023453;28;20351;-70
2023/01/05 12:52:05;;;;;;;14.20;2.13;;;8.80;88.40;;;;;;5025828;28;20026;-70
2023/01/05 12:54:45;;;;;;;9.70;1.73;;;8.80;88.80;;;;;;5022682;28;20128;-70
2023/01/05 12:57:17;;;;;;;10.35;1.77;;;8.80;88.40;;;;;;5026756;28;20037;-70
2023/01/05 13:00:04;;;;;;;11.68;2.08;;;8.80;88.70;;;;;;5019877;28;20062;-70
2023/01/05 13:02:40;;;;;;;8.90;1.50;;;8.70;88.60;;;;;;5031030;28;20047;-70
2023/01/05 13:05:28;;;;;;;16.95;1.90;;;8.60;88.80;;;;;;5026382;28;20033;-70
2023/01/05 13:08:00;;;;;;;15.07;1.63;;;8.70;88.40;;;;;;5020689;28;20056;-70
2023/01/05 13:10:31;;;;;;;9.52;1.60;;;8.70;88.30;;;;;;5029150;28;20037;-70
2023/01/05 13:13:02;;;;;;;9.35;1.58;;;8.60;88.30;;;;;;5032408;28;20469;-70
2023/01/05 13:15:34;;;;;;;11.95;2.17;;;8.70;88.30;;;;;;5031684;28;20109;-70
2023/01/05 13:18:04;;;;;;;6.35;1.42;;;8.60;88.00;;;;;;5031133;28;20092;-70
2023/01/05 13:20:42;;;;;;;7.22;1.33;;;8.60;88.00;;;;;;5027558;28;20041;-70
2023/01/05 13:23:28;;;;;;;8.32;1.70;;;8.50;88.40;;;;;;5023369;28;20045;-70
2023/01/05 13:25:56;;;;;;;9.13;1.80;;;8.40;89.00;;;;;;5032630;28;20036;-70
2023/01/05 13:28:23;;;;;;;13.18;1.48;;;8.40;88.70;;;;;;5030510;28;20037;-70
2023/01/05 13:31:23;;;;;;;6.88;1.40;;;8.40;88.50;;;;;;5031505;28;20025;-70
2023/01/05 13:34:10;;;;;;;9.60;1.50;;;8.40;88.40;;;;;;5020623;28;20037;-70
2023/01/05 13:37:13;;;;;;;5.97;1.30;;;8.40;89.50;;;;;;5030808;28;20377;-70
2023/01/05 13:39:48;;;;;;;7.82;1.73;;;8.30;89.70;;;;;;5031240;28;20033;-70
2023/01/05 13:42:48;;;;;;;11.27;1.55;;;8.30;89.80;;;;;;5032276;28;20057;-70
2023/01/05 13:45:44;;;;;;;8.52;1.58;;;8.30;89.80;;;;;;5030987;28;20056;-70